sensor_id;sensor_type;location;lat;lon;timestamp;temperature;humidity
9383;DHT22;4731;49.708;10.816;2023-02-28T00:01:21;-2.90;99.90
9383;DHT22;4731;49.708;10.816;2023-02-28T00:03:47;-2.90;99.90
9383;DHT22;4731;49.708;10.816;2023-02-28T00:06:14;-2.80;99.90
9383;DHT22;4731;49.708;10.816;2023-02-28T00:08:41;-2.80;99.90
9383;DHT22;4731;49.708;10.816;2023-02-28T00:11:10;-2.90;99.90
9383;DHT22;4731;49.708;10.816;2023-02-28T00:13:40;-2.90;99.90
9383;DHT22;4731;49.708;10.816;2023-02-28T00:16:10;-2.90;99.90
9383;DHT22;4731;49.708;10.816;2023-02-28T00:18:37;-2.90;99.90
9383;DHT22;4731;49.708;10.816;2023-02-28T00:21:04;-2.90;99.90
9383;DHT22;4731;49.708;10.816;2023-02-28T00:23:31;-2.80;99.90
9383;DHT22;4731;49.708;10.816;2023-02-28T00:25:58;-2.90;99.90
9383;DHT22;4731;49.708;10.816;2023-02-28T00:28:25;-2.90;99.90
9383;DHT22;4731;49.708;10.816;2023-02-28T00:30:52;-2.90;99.90
9383;DHT22;4731;49.708;10.816;2023-02-28T00:33:20;-2.90;99.90
9383;DHT22;4731;49.708;10.816;2023-02-28T00:35:46;-2.90;99.90
9383;DHT22;4731;49.708;10.816;2023-02-28T00:38:15;-2.90;99.90
9383;DHT22;4731;49.708;10.816;2023-02-28T00:40:42;-2.90;99.90
9383;DHT22;4731;49.708;10.816;2023-02-28T00:43:09;-2.80;99.90
9383;DHT22;4731;49.708;10.816;2023-02-28T00:45:36;-2.90;99.90
9383;DHT22;4731;49.708;10.816;2023-02-28T00:48:04;-2.80;99.90
9383;DHT22;4731;49.708;10.816;2023-02-28T00:50:33;-2.80;99.90
9383;DHT22;4731;49.708;10.816;2023-02-28T00:52:59;-2.90;99.90
9383;DHT22;4731;49.708;10.816;2023-02-28T00:55:26;-2.90;99.90
9383;DHT22;4731;49.708;10.816;2023-02-28T00:57:53;-2.90;99.90
9383;DHT22;4731;49.708;10.816;2023-02-28T01:00:20;-2.90;99.90
9383;DHT22;4731;49.708;10.816;2023-02-28T01:02:46;-2.90;99.90
9383;DHT22;4731;49.708;10.816;2023-02-28T01:05:13;-2.90;99.90
9383;DHT22;4731;49.708;10.816;2023-02-28T01:07:41;-3.00;99.90
9383;DHT22;4731;49.708;10.816;2023-02-28T01:10:09;-3.00;99.90
9383;DHT22;4731;49.708;10.816;2023-02-28T01:12:36;-3.10;99.90
9383;DHT22;4731;49.708;10.816;2023-02-28T01:15:04;-3.10;99.90
9383;DHT22;4731;49.708;10.816;2023-02-28T01:17:31;-3.10;99.90
9383;DHT22;4731;49.708;10.816;2023-02-28T01:19:57;-3.10;99.90
9383;DHT22;4731;49.708;10.816;2023-02-28T01:22:24;-3.10;99.90
9383;DHT22;4731;49.708;10.816;2023-02-28T01:24:52;-3.20;99.90
9383;DHT22;4731;49.708;10.816;2023-02-28T01:27:19;-1.40;99.90
9383;DHT22;4731;49.708;10.816;2023-02-28T01:29:46;-3.20;99.90
9383;DHT22;4731;49.708;10.816;2023-02-28T01:32:13;-3.30;99.90
9383;DHT22;4731;49.708;10.816;2023-02-28T01:34:40;-3.30;99.90
9383;DHT22;4731;49.708;10.816;2023-02-28T01:37:06;-3.20;99.90
9383;DHT22;4731;49.708;10.816;2023-02-28T01:39:33;-3.30;99.90
9383;DHT22;4731;49.708;10.816;2023-02-28T01:42:01;-3.20;99.90
9383;DHT22;4731;49.708;10.816;2023-02-28T01:47:38;-3.20;99.90
9383;DHT22;4731;49.708;10.816;2023-02-28T01:50:09;-3.10;99.90
9383;DHT22;4731;49.708;10.816;2023-02-28T01:52:38;-3.20;99.90
9383;DHT22;4731;49.708;10.816;2023-02-28T01:55:07;-3.10;99.90
9383;DHT22;4731;49.708;10.816;2023-02-28T01:57:38;-3.10;99.90
9383;DHT22;4731;49.708;10.816;2023-02-28T02:00:09;-3.10;99.90
9383;DHT22;4731;49.708;10.816;2023-02-28T02:02:39;-3.10;99.90
9383;DHT22;4731;49.708;10.816;2023-02-28T02:05:09;-3.10;99.90
9383;DHT22;4731;49.708;10.816;2023-02-28T02:07:37;-3.20;99.90
9383;DHT22;4731;49.708;10.816;2023-02-28T02:10:10;-3.20;99.90
9383;DHT22;4731;49.708;10.816;2023-02-28T02:16:00;-3.10;99.90
9383;DHT22;4731;49.708;10.816;2023-02-28T02:18:32;-3.00;99.90
9383;DHT22;4731;49.708;10.816;2023-02-28T02:21:16;-3.00;99.90
9383;DHT22;4731;49.708;10.816;2023-02-28T02:33:30;-3.00;99.90
9383;DHT22;4731;49.708;10.816;2023-02-28T02:36:06;-3.00;99.90
9383;DHT22;4731;49.708;10.816;2023-02-28T02:38:38;-3.00;99.90
9383;DHT22;4731;49.708;10.816;2023-02-28T02:41:14;-2.90;99.90
9383;DHT22;4731;49.708;10.816;2023-02-28T02:43:48;-3.00;99.90
9383;DHT22;4731;49.708;10.816;2023-02-28T02:46:19;-2.90;99.90
9383;DHT22;4731;49.708;10.816;2023-02-28T02:48:47;-2.90;99.90
9383;DHT22;4731;49.708;10.816;2023-02-28T02:51:17;-3.00;99.90
9383;DHT22;4731;49.708;10.816;2023-02-28T02:53:48;-0.20;99.90
9383;DHT22;4731;49.708;10.816;2023-02-28T02:56:17;-3.00;99.90
9383;DHT22;4731;49.708;10.816;2023-02-28T02:58:48;-1.40;99.90
9383;DHT22;4731;49.708;10.816;2023-02-28T03:01:19;-3.00;99.90
9383;DHT22;4731;49.708;10.816;2023-02-28T03:03:55;-3.00;99.90
9383;DHT22;4731;49.708;10.816;2023-02-28T03:06:23;-3.00;99.90
9383;DHT22;4731;49.708;10.816;2023-02-28T03:08:50;-3.00;99.90
9383;DHT22;4731;49.708;10.816;2023-02-28T03:11:17;-3.00;99.90
9383;DHT22;4731;49.708;10.816;2023-02-28T03:14:12;-3.00;99.90
9383;DHT22;4731;49.708;10.816;2023-02-28T03:16:56;-3.00;99.90
9383;DHT22;4731;49.708;10.816;2023-02-28T03:19:35;-3.10;99.90
9383;DHT22;4731;49.708;10.816;2023-02-28T03:22:16;-3.10;99.90
9383;DHT22;4731;49.708;10.816;2023-02-28T03:24:49;-3.10;99.90
9383;DHT22;4731;49.708;10.816;2023-02-28T03:27:24;-3.20;99.90
9383;DHT22;4731;49.708;10.816;2023-02-28T03:29:59;-2.80;99.90
9383;DHT22;4731;49.708;10.816;2023-02-28T03:32:32;-3.10;99.90
9383;DHT22;4731;49.708;10.816;2023-02-28T03:35:03;-3.10;99.90
9383;DHT22;4731;49.708;10.816;2023-02-28T03:37:35;-3.10;99.90
9383;DHT22;4731;49.708;10.816;2023-02-28T03:40:07;-3.10;99.90
9383;DHT22;4731;49.708;10.816;2023-02-28T03:42:41;-3.20;99.90
9383;DHT22;4731;49.708;10.816;2023-02-28T03:45:11;-3.20;99.90
9383;DHT22;4731;49.708;10.816;2023-02-28T03:47:41;-3.20;99.90
9383;DHT22;4731;49.708;10.816;2023-02-28T03:50:12;-3.20;99.90
9383;DHT22;4731;49.708;10.816;2023-02-28T03:52:46;-3.20;99.90
9383;DHT22;4731;49.708;10.816;2023-02-28T03:55:15;-3.20;99.90
9383;DHT22;4731;49.708;10.816;2023-02-28T03:57:50;-3.20;99.90
9383;DHT22;4731;49.708;10.816;2023-02-28T04:00:21;-3.20;99.90
9383;DHT22;4731;49.708;10.816;2023-02-28T04:02:51;-3.20;99.90
9383;DHT22;4731;49.708;10.816;2023-02-28T04:05:18;-3.10;99.90
9383;DHT22;4731;49.708;10.816;2023-02-28T04:07:46;-3.10;99.90
9383;DHT22;4731;49.708;10.816;2023-02-28T04:10:15;-3.10;99.90
9383;DHT22;4731;49.708;10.816;2023-02-28T04:12:42;-3.20;99.90
9383;DHT22;4731;49.708;10.816;2023-02-28T04:15:08;-3.20;99.90
9383;DHT22;4731;49.708;10.816;2023-02-28T04:17:36;-3.10;99.90
9383;DHT22;4731;49.708;10.816;2023-02-28T04:20:04;-3.10;99.90
9383;DHT22;4731;49.708;10.816;2023-02-28T04:22:35;-3.10;99.90
9383;DHT22;4731;49.708;10.816;2023-02-28T04:25:04;-3.10;99.90
9383;DHT22;4731;49.708;10.816;2023-02-28T04:27:31;-3.10;99.90
9383;DHT22;4731;49.708;10.816;2023-02-28T04:29:57;-3.10;99.90
9383;DHT22;4731;49.708;10.816;2023-02-28T04:32:24;-3.10;99.90
9383;DHT22;4731;49.708;10.816;2023-02-28T04:34:51;-3.10;99.90
9383;DHT22;4731;49.708;10.816;2023-02-28T04:37:17;-3.10;99.90
9383;DHT22;4731;49.708;10.816;2023-02-28T04:39:44;-3.00;99.90
9383;DHT22;4731;49.708;10.816;2023-02-28T04:42:12;-3.00;99.90
9383;DHT22;4731;49.708;10.816;2023-02-28T04:44:39;-3.00;99.90
9383;DHT22;4731;49.708;10.816;2023-02-28T04:47:06;-3.00;99.90
9383;DHT22;4731;49.708;10.816;2023-02-28T04:49:33;-3.00;99.90
9383;DHT22;4731;49.708;10.816;2023-02-28T04:52:00;-3.00;99.90
9383;DHT22;4731;49.708;10.816;2023-02-28T04:54:27;-3.00;99.90
9383;DHT22;4731;49.708;10.816;2023-02-28T04:56:54;-3.00;99.90
9383;DHT22;4731;49.708;10.816;2023-02-28T04:59:22;-3.00;99.90
9383;DHT22;4731;49.708;10.816;2023-02-28T05:01:49;-3.00;99.90
9383;DHT22;4731;49.708;10.816;2023-02-28T05:04:16;-3.10;99.90
9383;DHT22;4731;49.708;10.816;2023-02-28T05:06:43;-3.10;99.90
9383;DHT22;4731;49.708;10.816;2023-02-28T05:09:10;-3.10;99.90
9383;DHT22;4731;49.708;10.816;2023-02-28T05:11:38;-3.10;99.90
9383;DHT22;4731;49.708;10.816;2023-02-28T05:14:06;-3.10;99.90
9383;DHT22;4731;49.708;10.816;2023-02-28T05:16:35;-3.00;99.90
9383;DHT22;4731;49.708;10.816;2023-02-28T05:19:02;-3.00;99.90
9383;DHT22;4731;49.708;10.816;2023-02-28T05:21:30;-3.00;99.90
9383;DHT22;4731;49.708;10.816;2023-02-28T05:24:00;-3.00;99.90
9383;DHT22;4731;49.708;10.816;2023-02-28T05:26:28;-3.00;99.90
9383;DHT22;4731;49.708;10.816;2023-02-28T05:28:55;-3.00;99.90
9383;DHT22;4731;49.708;10.816;2023-02-28T05:31:22;-2.90;99.90
9383;DHT22;4731;49.708;10.816;2023-02-28T05:33:50;-3.00;99.90
9383;DHT22;4731;49.708;10.816;2023-02-28T05:36:17;-3.00;99.90
9383;DHT22;4731;49.708;10.816;2023-02-28T05:38:46;-3.00;99.90
9383;DHT22;4731;49.708;10.816;2023-02-28T05:41:13;-2.90;99.90
9383;DHT22;4731;49.708;10.816;2023-02-28T05:43:40;-2.90;99.90
9383;DHT22;4731;49.708;10.816;2023-02-28T05:46:08;-3.00;99.90
9383;DHT22;4731;49.708;10.816;2023-02-28T05:48:36;-2.90;99.90
9383;DHT22;4731;49.708;10.816;2023-02-28T05:51:05;-3.00;99.90
9383;DHT22;4731;49.708;10.816;2023-02-28T05:53:32;-3.00;99.90
9383;DHT22;4731;49.708;10.816;2023-02-28T05:55:59;-3.00;99.90
9383;DHT22;4731;49.708;10.816;2023-02-28T05:58:26;-2.90;99.90
9383;DHT22;4731;49.708;10.816;2023-02-28T06:00:56;-2.90;99.90
9383;DHT22;4731;49.708;10.816;2023-02-28T06:03:23;-2.80;99.90
9383;DHT22;4731;49.708;10.816;2023-02-28T06:05:50;-2.60;99.90
9383;DHT22;4731;49.708;10.816;2023-02-28T06:08:18;-2.80;99.90
9383;DHT22;4731;49.708;10.816;2023-02-28T06:10:45;-1.00;99.90
9383;DHT22;4731;49.708;10.816;2023-02-28T06:13:11;-2.60;99.90
9383;DHT22;4731;49.708;10.816;2023-02-28T06:15:38;-2.60;99.90
9383;DHT22;4731;49.708;10.816;2023-02-28T06:18:07;-2.60;99.90
9383;DHT22;4731;49.708;10.816;2023-02-28T06:20:33;-2.50;99.90
9383;DHT22;4731;49.708;10.816;2023-02-28T06:23:01;-2.40;99.90
9383;DHT22;4731;49.708;10.816;2023-02-28T06:25:30;-2.40;99.90
9383;DHT22;4731;49.708;10.816;2023-02-28T06:27:57;-2.30;99.90
9383;DHT22;4731;49.708;10.816;2023-02-28T06:30:23;-2.20;99.90
9383;DHT22;4731;49.708;10.816;2023-02-28T06:32:52;-2.10;99.90
9383;DHT22;4731;49.708;10.816;2023-02-28T06:35:19;-2.00;99.90
9383;DHT22;4731;49.708;10.816;2023-02-28T06:37:46;-1.90;99.90
9383;DHT22;4731;49.708;10.816;2023-02-28T06:40:14;-1.70;99.90
9383;DHT22;4731;49.708;10.816;2023-02-28T06:42:42;-1.20;99.90
9383;DHT22;4731;49.708;10.816;2023-02-28T06:45:10;-0.30;99.90
9383;DHT22;4731;49.708;10.816;2023-02-28T06:47:38;0.80;99.90
9383;DHT22;4731;49.708;10.816;2023-02-28T06:50:06;1.10;99.90
9383;DHT22;4731;49.708;10.816;2023-02-28T06:52:33;2.50;99.90
9383;DHT22;4731;49.708;10.816;2023-02-28T06:55:03;3.20;99.90
9383;DHT22;4731;49.708;10.816;2023-02-28T06:57:30;4.00;99.90
9383;DHT22;4731;49.708;10.816;2023-02-28T06:59:59;4.60;99.90
9383;DHT22;4731;49.708;10.816;2023-02-28T07:02:27;4.60;99.90
9383;DHT22;4731;49.708;10.816;2023-02-28T07:04:54;5.30;99.90
9383;DHT22;4731;49.708;10.816;2023-02-28T07:07:21;5.90;99.90
9383;DHT22;4731;49.708;10.816;2023-02-28T07:09:48;6.60;99.90
9383;DHT22;4731;49.708;10.816;2023-02-28T07:12:14;8.20;99.90
9383;DHT22;4731;49.708;10.816;2023-02-28T07:14:42;7.60;99.90
9383;DHT22;4731;49.708;10.816;2023-02-28T07:17:10;7.30;99.90
9383;DHT22;4731;49.708;10.816;2023-02-28T07:19:37;7.60;99.90
9383;DHT22;4731;49.708;10.816;2023-02-28T07:22:04;7.80;99.90
9383;DHT22;4731;49.708;10.816;2023-02-28T07:24:31;8.20;99.90
9383;DHT22;4731;49.708;10.816;2023-02-28T07:26:58;9.40;99.90
9383;DHT22;4731;49.708;10.816;2023-02-28T07:29:26;8.70;99.90
9383;DHT22;4731;49.708;10.816;2023-02-28T07:31:54;9.10;99.90
9383;DHT22;4731;49.708;10.816;2023-02-28T07:34:25;9.20;99.90
9383;DHT22;4731;49.708;10.816;2023-02-28T07:36:53;9.90;99.90
9383;DHT22;4731;49.708;10.816;2023-02-28T07:39:20;9.90;99.90
9383;DHT22;4731;49.708;10.816;2023-02-28T07:41:47;10.80;99.90
9383;DHT22;4731;49.708;10.816;2023-02-28T07:44:13;9.00;99.90
9383;DHT22;4731;49.708;10.816;2023-02-28T07:46:40;8.30;99.90
9383;DHT22;4731;49.708;10.816;2023-02-28T07:49:07;7.80;99.90
9383;DHT22;4731;49.708;10.816;2023-02-28T07:51:35;7.70;99.90
9383;DHT22;4731;49.708;10.816;2023-02-28T07:54:02;10.00;99.90
9383;DHT22;4731;49.708;10.816;2023-02-28T07:56:29;7.90;99.90
9383;DHT22;4731;49.708;10.816;2023-02-28T07:58:55;8.80;99.90
9383;DHT22;4731;49.708;10.816;2023-02-28T08:01:22;8.90;99.90
9383;DHT22;4731;49.708;10.816;2023-02-28T08:03:49;8.60;99.90
9383;DHT22;4731;49.708;10.816;2023-02-28T08:06:17;8.90;99.90
9383;DHT22;4731;49.708;10.816;2023-02-28T08:08:46;8.70;99.90
9383;DHT22;4731;49.708;10.816;2023-02-28T08:11:14;9.00;99.90
9383;DHT22;4731;49.708;10.816;2023-02-28T08:13:41;9.50;99.90
9383;DHT22;4731;49.708;10.816;2023-02-28T08:16:09;10.40;99.90
9383;DHT22;4731;49.708;10.816;2023-02-28T08:18:36;8.60;99.90
9383;DHT22;4731;49.708;10.816;2023-02-28T08:21:06;8.00;99.90
9383;DHT22;4731;49.708;10.816;2023-02-28T08:23:33;7.60;99.90
9383;DHT22;4731;49.708;10.816;2023-02-28T08:26:02;7.50;99.90
9383;DHT22;4731;49.708;10.816;2023-02-28T08:28:29;7.20;99.90
9383;DHT22;4731;49.708;10.816;2023-02-28T08:30:57;6.20;99.90
9383;DHT22;4731;49.708;10.816;2023-02-28T08:33:26;6.70;99.90
9383;DHT22;4731;49.708;10.816;2023-02-28T08:35:53;7.00;99.90
9383;DHT22;4731;49.708;10.816;2023-02-28T08:38:20;7.20;99.90
9383;DHT22;4731;49.708;10.816;2023-02-28T08:40:47;7.40;99.90
9383;DHT22;4731;49.708;10.816;2023-02-28T08:43:16;8.50;99.90
9383;DHT22;4731;49.708;10.816;2023-02-28T08:45:43;12.10;99.90
9383;DHT22;4731;49.708;10.816;2023-02-28T08:48:09;10.40;99.90
9383;DHT22;4731;49.708;10.816;2023-02-28T08:50:36;10.80;99.90
9383;DHT22;4731;49.708;10.816;2023-02-28T08:53:03;11.50;99.90
9383;DHT22;4731;49.708;10.816;2023-02-28T08:55:29;13.60;99.90
9383;DHT22;4731;49.708;10.816;2023-02-28T08:57:56;12.90;99.20
9383;DHT22;4731;49.708;10.816;2023-02-28T09:00:25;12.10;96.50
9383;DHT22;4731;49.708;10.816;2023-02-28T09:02:52;12.50;96.30
9383;DHT22;4731;49.708;10.816;2023-02-28T09:05:20;11.60;96.30
9383;DHT22;4731;49.708;10.816;2023-02-28T09:07:46;13.30;97.30
9383;DHT22;4731;49.708;10.816;2023-02-28T09:10:13;10.30;97.40
9383;DHT22;4731;49.708;10.816;2023-02-28T09:12:40;10.60;98.10
9383;DHT22;4731;49.708;10.816;2023-02-28T09:15:07;10.40;98.80
9383;DHT22;4731;49.708;10.816;2023-02-28T09:17:36;9.30;99.90
9383;DHT22;4731;49.708;10.816;2023-02-28T09:20:03;9.40;99.90
9383;DHT22;4731;49.708;10.816;2023-02-28T09:22:30;9.00;99.90
9383;DHT22;4731;49.708;10.816;2023-02-28T09:24:57;9.10;99.90
9383;DHT22;4731;49.708;10.816;2023-02-28T09:27:24;11.70;99.90
9383;DHT22;4731;49.708;10.816;2023-02-28T09:29:50;9.60;99.90
9383;DHT22;4731;49.708;10.816;2023-02-28T09:32:17;10.40;99.90
9383;DHT22;4731;49.708;10.816;2023-02-28T09:34:45;14.00;98.60
9383;DHT22;4731;49.708;10.816;2023-02-28T09:37:12;12.50;95.80
9383;DHT22;4731;49.708;10.816;2023-02-28T09:39:39;11.20;95.10
9383;DHT22;4731;49.708;10.816;2023-02-28T09:42:11;10.90;97.20
9383;DHT22;4731;49.708;10.816;2023-02-28T09:44:42;11.10;95.50
9383;DHT22;4731;49.708;10.816;2023-02-28T09:47:17;14.80;95.40
9383;DHT22;4731;49.708;10.816;2023-02-28T09:49:47;14.20;93.70
9383;DHT22;4731;49.708;10.816;2023-02-28T09:52:17;14.50;91.40
9383;DHT22;4731;49.708;10.816;2023-02-28T09:54:45;14.40;88.60
9383;DHT22;4731;49.708;10.816;2023-02-28T09:57:17;13.80;89.60
9383;DHT22;4731;49.708;10.816;2023-02-28T10:00:06;15.10;90.20
9383;DHT22;4731;49.708;10.816;2023-02-28T10:03:01;12.10;90.40
9383;DHT22;4731;49.708;10.816;2023-02-28T10:05:33;10.90;90.70
9383;DHT22;4731;49.708;10.816;2023-02-28T10:08:08;9.60;94.80
9383;DHT22;4731;49.708;10.816;2023-02-28T10:10:39;8.50;94.70
9383;DHT22;4731;49.708;10.816;2023-02-28T10:13:13;7.50;98.50
9383;DHT22;4731;49.708;10.816;2023-02-28T10:15:42;7.50;99.90
9383;DHT22;4731;49.708;10.816;2023-02-28T10:18:14;9.20;99.80
9383;DHT22;4731;49.708;10.816;2023-02-28T10:20:45;9.40;99.50
9383;DHT22;4731;49.708;10.816;2023-02-28T10:23:18;10.20;96.80
9383;DHT22;4731;49.708;10.816;2023-02-28T10:25:49;10.80;94.30
9383;DHT22;4731;49.708;10.816;2023-02-28T10:28:19;9.90;95.30
9383;DHT22;4731;49.708;10.816;2023-02-28T10:30:48;11.00;95.00
9383;DHT22;4731;49.708;10.816;2023-02-28T10:33:20;11.70;92.50
9383;DHT22;4731;49.708;10.816;2023-02-28T10:35:49;12.80;91.00
9383;DHT22;4731;49.708;10.816;2023-02-28T10:38:19;11.50;87.60
9383;DHT22;4731;49.708;10.816;2023-02-28T10:40:46;11.30;90.60
9383;DHT22;4731;49.708;10.816;2023-02-28T10:43:19;11.60;91.90
9383;DHT22;4731;49.708;10.816;2023-02-28T10:45:55;13.80;91.50
9383;DHT22;4731;49.708;10.816;2023-02-28T10:48:37;16.70;86.30
9383;DHT22;4731;49.708;10.816;2023-02-28T10:51:08;18.50;76.30
9383;DHT22;4731;49.708;10.816;2023-02-28T10:53:39;19.30;72.30
9383;DHT22;4731;49.708;10.816;2023-02-28T10:56:16;17.40;70.40
9383;DHT22;4731;49.708;10.816;2023-02-28T10:58:52;14.90;71.40
9383;DHT22;4731;49.708;10.816;2023-02-28T11:01:20;16.50;77.70
9383;DHT22;4731;49.708;10.816;2023-02-28T11:03:48;15.10;77.70
9383;DHT22;4731;49.708;10.816;2023-02-28T11:06:18;14.10;74.70
9383;DHT22;4731;49.708;10.816;2023-02-28T11:08:47;13.40;76.60
9383;DHT22;4731;49.708;10.816;2023-02-28T11:11:16;12.60;79.20
9383;DHT22;4731;49.708;10.816;2023-02-28T11:13:45;12.80;81.40
9383;DHT22;4731;49.708;10.816;2023-02-28T11:16:14;15.80;80.70
9383;DHT22;4731;49.708;10.816;2023-02-28T11:18:46;14.50;77.80
9383;DHT22;4731;49.708;10.816;2023-02-28T11:21:29;14.60;76.80
9383;DHT22;4731;49.708;10.816;2023-02-28T11:24:05;12.80;75.00
9383;DHT22;4731;49.708;10.816;2023-02-28T11:26:37;13.20;78.50
9383;DHT22;4731;49.708;10.816;2023-02-28T11:29:19;13.40;79.80
9383;DHT22;4731;49.708;10.816;2023-02-28T11:32:13;13.80;76.60
9383;DHT22;4731;49.708;10.816;2023-02-28T11:34:40;13.50;76.10
9383;DHT22;4731;49.708;10.816;2023-02-28T11:37:13;12.80;77.50
9383;DHT22;4731;49.708;10.816;2023-02-28T11:39:41;13.10;77.40
9383;DHT22;4731;49.708;10.816;2023-02-28T11:42:34;16.20;82.50
9383;DHT22;4731;49.708;10.816;2023-02-28T11:45:11;15.80;73.20
9383;DHT22;4731;49.708;10.816;2023-02-28T11:47:45;16.90;72.40
9383;DHT22;4731;49.708;10.816;2023-02-28T11:50:22;16.50;72.40
9383;DHT22;4731;49.708;10.816;2023-02-28T11:53:01;18.40;73.50
9383;DHT22;4731;49.708;10.816;2023-02-28T11:55:34;14.60;70.90
9383;DHT22;4731;49.708;10.816;2023-02-28T11:58:23;11.90;74.40
9383;DHT22;4731;49.708;10.816;2023-02-28T12:01:03;12.70;75.50
9383;DHT22;4731;49.708;10.816;2023-02-28T12:03:42;17.50;79.50
9383;DHT22;4731;49.708;10.816;2023-02-28T12:06:18;18.60;75.10
9383;DHT22;4731;49.708;10.816;2023-02-28T12:08:58;17.90;71.30
9383;DHT22;4731;49.708;10.816;2023-02-28T12:11:37;17.90;70.80
9383;DHT22;4731;49.708;10.816;2023-02-28T12:14:38;18.30;70.40
9383;DHT22;4731;49.708;10.816;2023-02-28T12:17:22;18.10;67.30
9383;DHT22;4731;49.708;10.816;2023-02-28T12:20:00;18.30;67.50
9383;DHT22;4731;49.708;10.816;2023-02-28T12:22:30;18.10;66.80
9383;DHT22;4731;49.708;10.816;2023-02-28T12:28:16;19.70;65.50
9383;DHT22;4731;49.708;10.816;2023-02-28T12:30:50;20.20;64.60
9383;DHT22;4731;49.708;10.816;2023-02-28T12:33:22;21.10;63.10
9383;DHT22;4731;49.708;10.816;2023-02-28T12:35:54;20.30;60.00
9383;DHT22;4731;49.708;10.816;2023-02-28T12:38:25;20.50;60.30
9383;DHT22;4731;49.708;10.816;2023-02-28T12:40:58;20.90;59.90
9383;DHT22;4731;49.708;10.816;2023-02-28T12:43:31;20.50;59.40
9383;DHT22;4731;49.708;10.816;2023-02-28T12:46:02;19.00;60.00
9383;DHT22;4731;49.708;10.816;2023-02-28T12:48:37;19.10;60.60
9383;DHT22;4731;49.708;10.816;2023-02-28T12:51:06;18.10;59.10
9383;DHT22;4731;49.708;10.816;2023-02-28T12:53:42;19.60;61.60
9383;DHT22;4731;49.708;10.816;2023-02-28T12:56:17;19.50;59.90
9383;DHT22;4731;49.708;10.816;2023-02-28T12:58:50;18.40;59.30
9383;DHT22;4731;49.708;10.816;2023-02-28T13:01:42;16.40;60.20
9383;DHT22;4731;49.708;10.816;2023-02-28T13:04:34;16.90;62.10
9383;DHT22;4731;49.708;10.816;2023-02-28T13:07:15;17.00;62.20
9383;DHT22;4731;49.708;10.816;2023-02-28T13:09:52;17.50;62.00
9383;DHT22;4731;49.708;10.816;2023-02-28T13:12:21;17.40;62.80
9383;DHT22;4731;49.708;10.816;2023-02-28T13:14:49;19.10;64.60
9383;DHT22;4731;49.708;10.816;2023-02-28T13:17:19;17.40;63.40
9383;DHT22;4731;49.708;10.816;2023-02-28T13:19:56;18.30;62.20
9383;DHT22;4731;49.708;10.816;2023-02-28T13:22:38;17.10;59.50
9383;DHT22;4731;49.708;10.816;2023-02-28T13:28:11;19.50;61.40
9383;DHT22;4731;49.708;10.816;2023-02-28T13:31:04;18.60;59.60
9383;DHT22;4731;49.708;10.816;2023-02-28T13:33:32;17.30;60.00
9383;DHT22;4731;49.708;10.816;2023-02-28T13:36:10;16.30;62.70
9383;DHT22;4731;49.708;10.816;2023-02-28T13:38:40;17.30;64.50
9383;DHT22;4731;49.708;10.816;2023-02-28T13:41:42;16.90;64.40
9383;DHT22;4731;49.708;10.816;2023-02-28T13:44:12;17.30;63.00
9383;DHT22;4731;49.708;10.816;2023-02-28T13:49:51;17.70;61.90
9383;DHT22;4731;49.708;10.816;2023-02-28T13:52:21;19.10;63.10
9383;DHT22;4731;49.708;10.816;2023-02-28T13:55:15;16.60;61.00
9383;DHT22;4731;49.708;10.816;2023-02-28T13:58:04;15.80;61.90
9383;DHT22;4731;49.708;10.816;2023-02-28T14:03:38;14.50;66.60
9383;DHT22;4731;49.708;10.816;2023-02-28T14:06:18;13.20;65.00
9383;DHT22;4731;49.708;10.816;2023-02-28T14:08:54;13.70;67.40
9383;DHT22;4731;49.708;10.816;2023-02-28T14:11:31;14.20;69.20
9383;DHT22;4731;49.708;10.816;2023-02-28T14:13:59;12.10;69.20
9383;DHT22;4731;49.708;10.816;2023-02-28T14:16:37;10.30;72.50
9383;DHT22;4731;49.708;10.816;2023-02-28T14:19:12;10.30;72.90
9383;DHT22;4731;49.708;10.816;2023-02-28T14:21:47;11.30;75.50
9383;DHT22;4731;49.708;10.816;2023-02-28T14:24:42;11.30;74.80
9383;DHT22;4731;49.708;10.816;2023-02-28T14:27:28;10.90;74.30
9383;DHT22;4731;49.708;10.816;2023-02-28T14:30:10;12.60;77.60
9383;DHT22;4731;49.708;10.816;2023-02-28T14:32:47;12.10;75.90
9383;DHT22;4731;49.708;10.816;2023-02-28T14:35:39;12.10;72.10
9383;DHT22;4731;49.708;10.816;2023-02-28T14:38:16;13.20;73.80
9383;DHT22;4731;49.708;10.816;2023-02-28T14:40:45;13.90;71.20
9383;DHT22;4731;49.708;10.816;2023-02-28T14:43:20;14.70;70.70
9383;DHT22;4731;49.708;10.816;2023-02-28T14:45:50;15.00;68.40
9383;DHT22;4731;49.708;10.816;2023-02-28T14:48:19;15.00;68.80
9383;DHT22;4731;49.708;10.816;2023-02-28T14:50:49;14.70;67.80
9383;DHT22;4731;49.708;10.816;2023-02-28T14:53:19;14.60;68.60
9383;DHT22;4731;49.708;10.816;2023-02-28T14:55:48;15.90;71.00
9383;DHT22;4731;49.708;10.816;2023-02-28T14:58:23;14.20;69.20
9383;DHT22;4731;49.708;10.816;2023-02-28T15:00:52;13.90;68.90
9383;DHT22;4731;49.708;10.816;2023-02-28T15:03:22;13.40;69.30
9383;DHT22;4731;49.708;10.816;2023-02-28T15:05:53;13.00;70.20
9383;DHT22;4731;49.708;10.816;2023-02-28T15:08:20;14.10;72.50
9383;DHT22;4731;49.708;10.816;2023-02-28T15:10:52;13.90;73.70
9383;DHT22;4731;49.708;10.816;2023-02-28T15:13:20;12.50;72.80
9383;DHT22;4731;49.708;10.816;2023-02-28T15:15:52;13.50;73.80
9383;DHT22;4731;49.708;10.816;2023-02-28T15:18:30;12.50;72.80
9383;DHT22;4731;49.708;10.816;2023-02-28T15:21:03;10.80;75.40
9383;DHT22;4731;49.708;10.816;2023-02-28T15:23:31;10.10;77.70
9383;DHT22;4731;49.708;10.816;2023-02-28T15:25:58;9.70;81.40
9383;DHT22;4731;49.708;10.816;2023-02-28T15:28:28;12.20;85.20
9383;DHT22;4731;49.708;10.816;2023-02-28T15:30:57;9.00;85.60
9383;DHT22;4731;49.708;10.816;2023-02-28T15:33:27;8.60;88.80
9383;DHT22;4731;49.708;10.816;2023-02-28T15:36:11;8.30;90.80
9383;DHT22;4731;49.708;10.816;2023-02-28T15:38:39;8.10;92.90
9383;DHT22;4731;49.708;10.816;2023-02-28T15:41:21;9.50;94.70
9383;DHT22;4731;49.708;10.816;2023-02-28T15:44:13;7.40;94.80
9383;DHT22;4731;49.708;10.816;2023-02-28T15:46:43;7.10;95.90
9383;DHT22;4731;49.708;10.816;2023-02-28T15:49:18;6.90;97.10
9383;DHT22;4731;49.708;10.816;2023-02-28T15:51:46;7.60;98.90
9383;DHT22;4731;49.708;10.816;2023-02-28T15:54:18;6.60;98.40
9383;DHT22;4731;49.708;10.816;2023-02-28T15:56:48;6.40;99.60
9383;DHT22;4731;49.708;10.816;2023-02-28T15:59:20;6.20;99.90
9383;DHT22;4731;49.708;10.816;2023-02-28T16:02:01;6.10;99.90
9383;DHT22;4731;49.708;10.816;2023-02-28T16:04:29;6.00;99.90
9383;DHT22;4731;49.708;10.816;2023-02-28T16:09:39;5.90;99.90
9383;DHT22;4731;49.708;10.816;2023-02-28T16:12:09;5.80;99.90
9383;DHT22;4731;49.708;10.816;2023-02-28T16:14:39;5.60;99.90
9383;DHT22;4731;49.708;10.816;2023-02-28T16:17:07;6.00;99.90
9383;DHT22;4731;49.708;10.816;2023-02-28T16:19:41;4.80;99.90
9383;DHT22;4731;49.708;10.816;2023-02-28T16:22:08;4.80;99.90
9383;DHT22;4731;49.708;10.816;2023-02-28T16:24:35;4.60;99.90
9383;DHT22;4731;49.708;10.816;2023-02-28T16:27:04;5.60;99.90
9383;DHT22;4731;49.708;10.816;2023-02-28T16:29:33;4.30;99.90
9383;DHT22;4731;49.708;10.816;2023-02-28T16:32:04;4.20;99.90
9383;DHT22;4731;49.708;10.816;2023-02-28T16:34:31;4.10;99.90
9383;DHT22;4731;49.708;10.816;2023-02-28T16:36:59;3.90;99.90
9383;DHT22;4731;49.708;10.816;2023-02-28T16:39:26;3.90;99.90
9383;DHT22;4731;49.708;10.816;2023-02-28T16:41:53;3.80;99.90
9383;DHT22;4731;49.708;10.816;2023-02-28T16:44:26;3.70;99.90